CheckWX is a tool to help pilots better visualize weather data.  It is not intended as a substitute for an official pre-flight weather briefing.

01:32:27 UTC

KADW TAF
Joint Base Andrews
Camp Springs, Maryland, USA
TAF KADW 140100Z 1401/1507 33005KT 9999 SKC QNH2987INS BECMG 1412/1413 34006KT 9999 SCT050 QNH2999INS TEMPO 1418/1421 32010G15KT BECMG 1420/1421 32006KT 9999 SKC QNH3000INS TX31/1420Z TN20/1407Z

Jul-14@
01:00 UTC

Jul-14 @ 01:00 UTC

Jul-14@
12:00 UTC

Jul-14 @ 12:00 UTC

TAF KADW 140100Z 1401/1507 33005KT 9999 SKC QNH2987INS

Expired

Wind
  • 330° at 5 KTS
Cloud Levels
  • Clear skies

Jul-14@
12:00 UTC

Jul-14 @ 12:00 UTC

Jul-14@
20:00 UTC

Jul-14 @ 20:00 UTC

BECMG 1412/1413 34006KT 9999 SCT050 QNH2999INS

Expired

Wind
  • 340° at 6 KTS
Cloud Levels
  • Scattered at 5,000' AGL

Jul-14@
18:00 UTC

Jul-14 @ 18:00 UTC

Jul-14@
21:00 UTC

Jul-14 @ 21:00 UTC

TEMPO 1418/1421 32010G15KT

Expired

Wind
  • 320° at 10 KTS
  • {Gusting to 15 KTS
Cloud Levels

Jul-14@
20:00 UTC

Jul-14 @ 20:00 UTC

Jul-15@
07:00 UTC

Jul-15 @ 07:00 UTC

BECMG 1420/1421 32006KT 9999 SKC QNH3000INS TX31/1420Z TN20/1407Z

Becoming

Becoming Conditions expected by Tue, Jul 14, 2020 @ 21:00 UTC

Wind
  • 320° at 6 KTS
Cloud Levels
  • Clear skies